Latest Weather Observations for Hopetoun North

IDW60801

Issued at 9:02 pm WST Tuesday 28 July 2015 (issued every 30 minutes, with the page automatically refreshed every 10 minutes)

About weather observations | Map of weather stations | Latest weather observations for WA | Other Formats
Station Details ID: 009961 Name: HOPETOUN NORTH Lat: -33.93 Lon: 120.13 Height: 26.0 m
Data from the previous 72 hours. | See also: Recent months at Hopetoun North
Date/Time
WST
Temp
°C
App
Temp
°C
Dew
Point
Rel
Hum
%
Delta-T
°C
Wind Press
QNH
hPa
Press
MSL
hPa
Rain
since 9 am
mm
Dir
 
Spd
km/h
Gust
km/h
Spd
kts
Gust
kts
28/09:00pm 11.3 8.7 7.6 78 1.8 NNW 11 17 6 9 1017.3 1017.3 0.0
28/08:30pm 11.2 8.6 7.7 79 1.7 N 11 13 6 7 1017.3 1017.3 0.0
28/08:00pm 11.5 9.1 7.2 75 2.1 N 9 15 5 8 1017.6 1017.6 0.0
28/07:30pm 11.5 9.1 7.0 74 2.2 N 9 13 5 7 1017.3 1017.3 0.0
28/07:00pm 11.3 9.2 6.8 74 2.1 NNE 7 11 4 6 1017.2 1017.2 0.0
28/06:30pm 11.6 8.7 6.5 71 2.4 N 11 17 6 9 1017.1 1017.1 0.0
28/06:00pm 11.5 9.6 6.6 72 2.3 N 6 9 3 5 1017.1 1017.1 0.0
28/05:30pm 11.7 9.2 6.4 70 2.5 N 9 13 5 7 1016.6 1016.6 0.0
28/05:00pm 11.8 8.9 6.3 69 2.6 N 11 15 6 8 1016.6 1016.6 0.0
28/04:30pm 11.5 9.1 7.0 74 2.2 NE 9 15 5 8 1016.5 1016.5 0.0
28/04:00pm 11.2 8.9 7.5 78 1.8 NE 9 11 5 6 1016.4 1016.4 0.0
28/03:30pm 11.1 9.2 7.4 78 1.8 ENE 7 11 4 6 1016.8 1016.8 0.0
28/03:00pm 11.2 8.8 6.9 75 2.0 NE 9 13 5 7 1017.2 1017.2 0.0
28/02:30pm 11.1 8.7 7.0 76 2.0 NE 9 13 5 7 1017.9 1017.9 0.0
28/02:00pm 11.1 8.6 6.6 74 2.1 NNE 9 13 5 7 1018.1 1018.1 0.0
28/01:30pm 11.7 9.1 6.2 69 2.6 NNE 9 13 5 7 1018.5 1018.5 0.0
28/01:00pm 11.2 8.3 6.3 72 2.3 N 11 17 6 9 1018.9 1018.9 0.0
28/12:30pm 11.1 7.3 5.8 70 2.5 NNE 15 22 8 12 1019.4 1019.4 0.0
28/12:00pm 11.2 7.9 6.3 72 2.3 NNE 13 19 7 10 1019.7 1019.7 0.0
28/11:30am 10.9 8.5 6.8 76 1.9 NNE 9 13 5 7 1020.9 1020.9 0.0
28/11:00am 10.8 8.2 6.2 73 2.1 N 9 13 5 7 1021.9 1021.9 0.0
28/10:30am 11.2 8.4 5.1 66 2.8 N 9 15 5 8 1022.7 1022.7 0.0
28/10:00am 11.4 7.4 4.8 64 3.0 NNE 15 20 8 11 1023.0 1023.0 0.0
28/09:30am 12.1 8.4 4.3 59 3.5 N 13 20 7 11 1023.0 1023.0 0.0
28/09:00am 10.0 6.7 4.6 69 2.4 N 11 20 6 11 1023.3 1023.3 0.0
28/08:30am 7.9 5.9 4.3 78 1.6 N 4 9 2 5 1023.5 1023.5 0.0
28/08:00am 7.4 4.0 4.0 79 1.5 NNE 11 17 6 9 1023.3 1023.3 0.0
28/07:30am 6.8 3.0 3.9 82 1.2 NE 13 17 7 9 1023.3 1023.3 0.0
28/07:00am 6.7 3.2 3.7 81 1.3 NE 11 15 6 8 1023.4 1023.4 0.0
28/06:30am 6.2 3.1 3.4 82 1.2 ENE 9 13 5 7 1023.6 1023.6 0.0
28/06:00am 6.0 2.1 3.5 84 1.0 NE 13 19 7 10 1023.6 1023.6 0.0
28/05:30am 6.3 2.3 3.1 80 1.3 ENE 13 17 7 9 1023.8 1023.8 0.0
28/05:00am 6.4 3.3 3.4 81 1.3 ENE 9 13 5 7 1024.2 1024.2 0.0
28/04:30am 6.5 3.8 3.5 81 1.3 NE 7 11 4 6 1024.6 1024.6 0.0
28/04:00am 6.8 2.5 3.4 79 1.4 NNE 15 19 8 10 1024.4 1024.4 0.0
28/03:30am 6.6 1.9 3.4 80 1.3 NE 17 20 9 11 1024.5 1024.5 0.0
28/03:00am 7.0 2.7 3.3 77 1.6 NE 15 20 8 11 1024.2 1024.2 0.0
28/02:30am 7.5 2.8 3.4 75 1.7 NNE 17 20 9 11 1024.9 1024.9 0.0
28/02:00am 7.5 3.7 3.9 78 1.5 NNE 13 17 7 9 1025.7 1025.7 0.0
28/01:30am 8.0 3.8 3.7 74 1.8 NNE 15 20 8 11 1025.8 1025.8 0.0
28/01:00am 8.0 3.8 3.7 74 1.8 NNE 15 20 8 11 1026.0 1026.0 0.0
28/12:30am 7.6 3.4 3.8 77 1.6 NNE 15 17 8 9 1026.3 1026.3 0.0
28/12:00am 7.4 3.6 3.8 78 1.5 NNE 13 19 7 10 1026.5 1026.5 0.0
 
Date/Time
WST
Temp
°C
App
Temp
°C
Dew
Point
Rel
Hum
%
Delta-T
°C
Wind Press
QNH
hPa
Press
MSL
hPa
Rain
since 9 am
mm
Dir
 
Spd
km/h
Gust
km/h
Spd
kts
Gust
kts
27/11:30pm 6.8 2.6 3.6 80 1.4 NNE 15 19 8 10 1026.8 1026.8 0.0
27/11:00pm 6.7 2.5 3.7 81 1.3 NNE 15 17 8 9 1027.1 1027.1 0.0
27/10:30pm 6.5 2.3 3.7 82 1.2 NE 15 17 8 9 1027.2 1027.2 0.0
27/10:00pm 6.8 3.1 4.3 84 1.1 NE 13 17 7 9 1027.3 1027.3 0.0
27/09:30pm 6.9 3.2 4.7 86 1.0 NE 13 19 7 10 1027.6 1027.6 0.0
27/09:00pm 8.2 5.6 6.2 87 0.9 NE 9 11 5 6 1028.1 1028.1 0.0
27/08:30pm 8.3 5.5 6.8 90 0.7 NE 11 11 6 6 1028.1 1028.1 0.0
27/08:00pm 9.2 6.5 7.2 87 0.9 ENE 11 13 6 7 1028.3 1028.3 0.0
27/07:30pm 10.2 7.2 7.6 84 1.2 ENE 13 17 7 9 1028.3 1028.3 0.0
27/07:00pm 12.1 9.6 8.4 78 1.8 ENE 11 13 6 7 1028.4 1028.4 0.0
27/06:30pm 13.0 10.9 8.3 73 2.3 ENE 9 11 5 6 1028.3 1028.3 0.0
27/06:00pm 13.8 11.2 7.8 67 2.9 E 11 17 6 9 1027.8 1027.8 0.0
27/05:30pm 14.4 12.2 7.7 64 3.3 E 9 11 5 6 1027.3 1027.3 0.0
27/05:00pm 15.0 13.0 10.0 72 2.6 SE 11 11 6 6 1027.3 1027.3 0.0
27/04:30pm 15.2 13.5 10.0 71 2.7 SE 9 13 5 7 1027.5 1027.5 0.0
27/04:00pm 15.8 13.2 9.2 65 3.4 SE 13 19 7 10 1027.3 1027.3 0.0
27/03:30pm 18.0 16.1 6.8 48 5.6 NE 6 13 3 7 1027.5 1027.5 0.0
27/03:00pm 15.8 13.3 3.9 45 5.5 N 6 11 3 6 1028.1 1028.1 0.0
27/02:30pm 16.1 13.2 4.5 46 5.4 NNE 9 13 5 7 1028.4 1028.4 0.0
27/02:00pm 16.1 13.2 4.5 46 5.4 NNW 9 15 5 8 1028.6 1028.6 0.0
27/01:30pm 16.0 12.8 5.0 48 5.2 N 11 19 6 10 1028.4 1028.4 0.0
27/01:00pm 15.9 12.7 5.2 49 5.1 N 11 19 6 10 1028.9 1028.9 0.0
27/12:30pm 16.6 13.3 6.4 51 5.0 N 13 20 7 11 1029.7 1029.7 0.0
27/12:00pm 14.8 10.7 4.5 50 4.7 N 15 20 8 11 1030.4 1030.4 0.0
27/11:30am 14.8 11.6 5.3 53 4.5 NNE 11 19 6 10 1031.0 1031.0 0.0
27/11:00am 13.4 10.2 5.3 58 3.8 NNE 11 19 6 10 1031.8 1031.8 0.0
27/10:30am 11.7 8.5 5.1 64 3.0 N 11 17 6 9 1032.3 1032.3 0.0
27/10:00am 10.2 7.0 5.2 71 2.2 N 11 19 6 10 1032.8 1032.8 0.0
27/09:30am 8.5 5.7 5.1 79 1.5 NNE 9 13 5 7 1033.1 1033.1 0.0
27/09:00am 6.7 3.7 4.2 84 1.1 NNE 9 15 5 8 1033.1 1033.1 0.2
27/08:30am 5.3 3.4 4.7 96 0.3 NNE 4 6 2 3 1033.3 1033.3 0.2
27/08:00am 2.9 -0.4 2.5 97 0.2 NNE 9 13 5 7 1033.3 1033.3 0.2
27/07:30am 1.9 -1.9 1.5 97 0.2 NE 11 13 6 7 1033.1 1033.1 0.2
27/07:00am 1.4 -2.1 1.0 97 0.1 NE 9 9 5 5 1033.2 1033.2 0.0
27/06:30am 2.3 -0.7 1.9 97 0.2 NNE 7 11 4 6 1033.3 1033.3 0.0
27/06:00am 2.5 -0.3 2.1 97 0.2 NNE 6 9 3 5 1033.1 1033.1 0.0
27/05:30am 2.5 -0.5 2.2 98 0.1 N 7 13 4 7 1032.8 1032.8 0.0
27/05:00am 1.7 -1.2 1.3 97 0.1 NNE 6 7 3 4 1032.5 1032.5 0.0
27/04:30am 2.0 -1.0 1.7 98 0.1 NE 7 9 4 5 1032.1 1032.1 0.0
27/04:00am 2.5 -0.5 2.2 98 0.1 NNE 7 9 4 5 1032.2 1032.2 0.0
27/03:30am 3.3 0.5 3.0 98 0.1 NNE 7 9 4 5 1032.1 1032.1 0.0
27/03:00am 3.2 0.4 2.9 98 0.1 N 7 11 4 6 1032.3 1032.3 0.0
27/02:30am 3.1 0.2 2.7 97 0.2 NNE 7 7 4 4 1032.1 1032.1 0.0
27/02:00am 3.8 1.2 3.4 97 0.2 NNE 6 7 3 4 1032.3 1032.3 0.0
27/01:30am 4.3 2.2 4.0 98 0.1 NNE 4 6 2 3 1032.7 1032.7 0.0
27/01:00am 4.8 2.8 4.5 98 0.1 NNE 4 4 2 2 1032.5 1032.5 0.0
27/12:30am 4.9 2.4 4.6 98 0.1 NE 7 7 4 4 1032.7 1032.7 0.0
27/12:00am 5.2 2.7 4.8 97 0.2 NE 7 9 4 5 1032.8 1032.8 0.0
 
Date/Time
WST
Temp
°C
App
Temp
°C
Dew
Point
Rel
Hum
%
Delta-T
°C
Wind Press
QNH
hPa
Press
MSL
hPa
Rain
since 9 am
mm
Dir
 
Spd
km/h
Gust
km/h
Spd
kts
Gust
kts
26/11:30pm 5.9 3.6 5.5 97 0.2 NE 7 7 4 4 1032.9 1032.9 0.0
26/11:00pm 6.0 3.6 5.4 96 0.3 NE 7 7 4 4 1033.2 1033.2 0.0
26/10:30pm 6.8 4.5 5.9 94 0.4 NNE 7 9 4 5 1033.5 1033.5 0.0
26/10:00pm 7.7 5.7 6.2 90 0.7 NNE 6 7 3 4 1033.6 1033.6 0.0
26/09:30pm 8.5 6.6 6.6 88 0.9 NNE 6 7 3 4 1033.4 1033.4 0.0
26/09:00pm 8.5 6.6 6.8 89 0.8 NE 6 9 3 5 1033.1 1033.1 0.0
26/08:30pm 8.7 6.8 6.8 88 0.9 ENE 6 7 3 4 1032.9 1032.9 0.0
26/08:00pm 8.9 7.7 6.3 84 1.2 NE 2 4 1 2 1032.8 1032.8 0.0
26/07:30pm 9.6 8.1 5.2 74 2.0 NW 2 13 1 7 1032.8 1032.8 0.0
26/07:00pm 9.2 7.1 5.9 80 1.5 NE 6 6 3 3 1032.6 1032.6 0.0
26/06:30pm 9.5 7.8 5.9 78 1.7 E 4 7 2 4 1032.4 1032.4 0.0
26/06:00pm 9.5 8.4 5.3 75 1.9 CALM 0 0 0 0 1032.2 1032.2 0.0
26/05:30pm 9.5 8.6 6.0 79 1.6 CALM 0 2 0 1 1032.0 1032.0 0.0
26/05:00pm 10.0 8.8 6.3 78 1.7 E 2 4 1 2 1031.9 1031.9 0.0
26/04:30pm 10.2 8.1 6.0 75 1.9 SE 6 7 3 4 1031.8 1031.8 0.0
26/04:00pm 10.3 8.1 6.1 75 1.9 SSE 7 9 4 5 1031.9 1031.9 0.0
26/03:30pm 10.5 8.4 6.5 76 1.9 SSE 7 9 4 5 1031.7 1031.7 0.0
26/03:00pm 11.0 8.6 7.1 77 1.8 S 9 13 5 7 1031.5 1031.5 0.0
26/02:30pm 10.7 8.2 5.0 68 2.6 SSW 7 11 4 6 1031.5 1031.5 0.0
26/02:00pm 10.6 8.3 5.8 72 2.2 SW 7 11 4 6 1031.4 1031.4 0.0
26/01:30pm 10.7 8.6 5.9 72 2.2 SW 6 13 3 7 1031.4 1031.4 0.0
26/01:00pm 10.2 8.0 5.2 71 2.3 SW 6 7 3 4 1031.3 1031.3 0.0
26/12:30pm 10.4 8.2 5.4 71 2.3 SSW 6 9 3 5 1031.6 1031.6 0.0
26/12:00pm 10.6 8.6 6.4 75 1.9 WSW 6 7 3 4 1032.1 1032.1 0.0
26/11:30am 10.0 6.3 6.5 79 1.6 WSW 15 20 8 11 1032.5 1032.5 0.0
26/11:00am 10.6 8.0 6.2 74 2.0 SW 9 17 5 9 1032.9 1032.9 0.0
26/10:30am 11.9 9.7 6.2 68 2.7 NW 7 11 4 6 1033.0 1033.0 0.0
26/10:00am 10.4 8.7 5.8 73 2.1 WNW 4 6 2 3 1032.9 1032.9 0.0
26/09:30am 9.5 7.5 6.2 80 1.5 WNW 6 7 3 4 1032.5 1032.5 0.0
26/09:00am 9.8 7.9 6.5 80 1.5 NW 6 11 3 6 1032.3 1032.3 2.8
26/08:30am 8.4 6.4 7.0 91 0.7 NNW 7 9 4 5 1032.0 1032.0 2.8
26/08:00am 7.9 5.8 6.8 93 0.5 NNW 7 11 4 6 1031.7 1031.7 2.8
26/07:30am 7.4 5.5 6.7 95 0.3 NNW 6 11 3 6 1031.5 1031.5 2.8
26/07:00am 9.3 7.7 7.9 91 0.7 NNE 6 6 3 3 1031.1 1031.1 2.8
26/06:30am 9.3 6.9 8.7 96 0.3 NNW 11 15 6 8 1030.9 1030.9 2.8
26/06:00am 9.3 7.8 8.5 95 0.4 NNW 6 9 3 5 1030.4 1030.4 2.8
26/05:30am 10.0 7.7 8.9 93 0.5 SW 11 19 6 10 1030.2 1030.2 2.8
26/05:00am 9.6 7.9 8.4 92 0.6 S 7 15 4 8 1029.7 1029.7 2.8
26/04:30am 7.8 1.5 5.9 88 0.9 SW 28 35 15 19 1029.7 1029.7 2.6
26/04:00am 8.7 5.0 4.5 75 1.8 SSW 13 17 7 9 1029.3 1029.3 2.6
26/03:30am 9.2 5.4 3.8 69 2.4 SSW 13 19 7 10 1029.3 1029.3 2.6
26/03:00am 9.7 5.5 3.9 67 2.5 SSW 15 24 8 13 1029.2 1029.2 2.6
26/02:30am 9.7 5.0 3.4 65 2.7 SSW 17 24 9 13 1029.0 1029.0 2.6
26/02:00am 10.1 5.2 4.0 66 2.7 SSW 19 26 10 14 1028.9 1028.9 2.6
26/01:30am 9.8 5.2 5.8 76 1.8 SSW 19 26 10 14 1028.9 1028.9 2.6
26/01:00am 9.4 5.0 4.6 72 2.1 S 17 22 9 12 1028.7 1028.7 2.6
26/12:30am 9.5 4.8 5.1 74 2.0 S 19 28 10 15 1028.6 1028.6 2.6
26/12:00am 9.9 5.2 3.4 64 2.8 SSW 17 24 9 13 1028.5 1028.5 2.6
 
Date/Time
WST
Temp
°C
App
Temp
°C
Dew
Point
Rel
Hum
%
Delta-T
°C
Wind Press
QNH
hPa
Press
MSL
hPa
Rain
since 9 am
mm
Dir
 
Spd
km/h
Gust
km/h
Spd
kts
Gust
kts
25/11:30pm 10.4 5.5 4.3 66 2.7 SSW 19 24 10 13 1028.6 1028.6 2.6
25/11:00pm 10.3 5.8 5.9 74 2.0 S 19 28 10 15 1028.5 1028.5 2.6
25/10:30pm 10.5 5.4 6.1 74 2.0 SSW 22 28 12 15 1028.4 1028.4 2.6
25/10:00pm 10.9 5.4 3.9 62 3.1 SW 22 33 12 18 1028.1 1028.1 2.6
25/09:30pm 10.9 4.9 3.5 60 3.3 SW 24 35 13 19 1028.1 1028.1 2.6

Other Formats:

Comma delimited format used in spreadsheet applications
http://www.bom.gov.au/fwo/IDW60801/IDW60801.95635.axf

JavaScript Object Notation format (JSON) in row-major order
http://www.bom.gov.au/fwo/IDW60801/IDW60801.95635.json